createdAt,value
2019-05-17T00:00:17.924Z,24.80
2019-05-17T00:02:46.700Z,22.48
2019-05-17T00:05:17.792Z,23.62
2019-05-17T00:07:47.436Z,23.05
2019-05-17T00:10:17.459Z,23.32
2019-05-17T00:12:47.184Z,22.82
2019-05-17T00:15:16.942Z,23.60
2019-05-17T00:17:46.849Z,25.35
2019-05-17T00:20:17.317Z,26.48
2019-05-17T00:22:47.178Z,25.52
2019-05-17T00:25:16.896Z,22.62
2019-05-17T00:27:47.402Z,24.82
2019-05-17T00:30:17.522Z,25.08
2019-05-17T00:32:47.719Z,22.35
2019-05-17T00:35:17.778Z,22.93
2019-05-17T00:37:46.828Z,24.52
2019-05-17T00:40:16.638Z,23.15
2019-05-17T00:42:46.715Z,24.23
2019-05-17T00:45:17.575Z,23.35
2019-05-17T00:47:47.000Z,21.15
2019-05-17T00:50:16.973Z,21.93
2019-05-17T00:52:47.419Z,20.40
2019-05-17T00:55:17.537Z,21.05
2019-05-17T00:57:47.493Z,17.15
2019-05-17T01:00:17.507Z,18.65
2019-05-17T01:02:46.746Z,16.82
2019-05-17T01:05:17.129Z,17.12
2019-05-17T01:07:46.951Z,19.95
2019-05-17T01:10:16.905Z,17.60
2019-05-17T01:12:48.082Z,20.43
2019-05-17T01:15:17.829Z,17.30
2019-05-17T01:17:47.295Z,17.32
2019-05-17T01:20:17.526Z,18.45
2019-05-17T01:22:47.635Z,22.80
2019-05-17T01:25:17.064Z,25.23
2019-05-17T01:27:47.444Z,20.08
2019-05-17T01:30:17.980Z,18.40
2019-05-17T01:32:46.716Z,20.30
2019-05-17T01:35:16.757Z,17.02
2019-05-17T01:37:47.495Z,21.70
2019-05-17T01:40:17.746Z,17.02
2019-05-17T01:42:46.842Z,20.10
2019-05-17T01:45:16.870Z,20.35
2019-05-17T01:47:47.490Z,19.80
2019-05-17T01:50:17.465Z,18.75
2019-05-17T01:52:46.591Z,20.50
2019-05-17T01:55:17.157Z,20.12
2019-05-17T01:57:47.603Z,20.43
2019-05-17T02:00:17.551Z,21.62
2019-05-17T02:02:48.009Z,19.20
2019-05-17T02:05:17.413Z,22.00
2019-05-17T02:07:46.742Z,20.32
2019-05-17T02:10:16.746Z,22.77
2019-05-17T02:12:49.025Z,21.12
2019-05-17T02:15:19.009Z,25.90
2019-05-17T02:17:47.645Z,22.02
2019-05-17T02:20:17.261Z,24.90
2019-05-17T02:22:47.327Z,24.12
2019-05-17T02:25:17.039Z,27.37
2019-05-17T02:27:45.750Z,24.80
2019-05-17T02:30:15.607Z,23.60
2019-05-17T02:32:44.915Z,24.90
2019-05-17T02:35:15.181Z,23.40
2019-05-17T02:37:44.422Z,25.17
2019-05-17T02:40:15.218Z,25.72
2019-05-17T02:42:44.599Z,32.63
2019-05-17T02:45:14.260Z,26.77
2019-05-17T02:47:43.937Z,29.52
2019-05-17T02:50:13.925Z,29.15
2019-05-17T02:52:43.943Z,30.23
2019-05-17T02:55:15.945Z,30.95
2019-05-17T02:57:44.589Z,31.45
2019-05-17T03:00:14.402Z,29.87
2019-05-17T03:02:44.067Z,32.83
2019-05-17T03:05:13.849Z,31.15
2019-05-17T03:07:43.729Z,35.58
2019-05-17T03:10:24.125Z,36.68
2019-05-17T03:12:44.845Z,29.72
2019-05-17T03:15:14.399Z,35.35
2019-05-17T03:17:43.789Z,32.85
2019-05-17T03:20:14.477Z,34.23
2019-05-17T03:22:44.332Z,37.20
2019-05-17T03:25:14.326Z,32.90
2019-05-17T03:27:43.912Z,37.93
2019-05-17T03:30:18.766Z,32.48
2019-05-17T03:32:48.511Z,31.62
2019-05-17T03:35:18.146Z,33.50
2019-05-17T03:37:46.964Z,32.00
2019-05-17T03:40:30.671Z,30.97
2019-05-17T03:42:45.823Z,28.95
2019-05-17T03:45:15.145Z,33.95
2019-05-17T03:47:44.711Z,30.97
2019-05-17T03:50:14.420Z,36.42
2019-05-17T03:52:44.660Z,30.97
2019-05-17T03:55:14.121Z,29.00
2019-05-17T03:57:44.289Z,29.48
2019-05-17T04:00:15.561Z,29.00
2019-05-17T04:02:44.901Z,25.12
2019-05-17T04:05:14.258Z,27.20
2019-05-17T04:07:43.804Z,25.62
2019-05-17T04:10:15.067Z,26.97
2019-05-17T04:12:44.443Z,27.55
2019-05-17T04:15:14.142Z,25.75
2019-05-17T04:17:43.981Z,25.62
2019-05-17T04:20:14.149Z,24.37
2019-05-17T04:22:44.410Z,25.75
2019-05-17T04:25:14.291Z,24.47
2019-05-17T04:27:43.823Z,26.33
2019-05-17T04:30:13.932Z,27.00
2019-05-17T04:32:44.183Z,31.10
2019-05-17T04:35:13.781Z,26.87
2019-05-17T04:37:44.653Z,25.32
2019-05-17T04:40:14.532Z,23.83
2019-05-17T04:42:44.236Z,31.07
2019-05-17T04:45:14.384Z,29.12
2019-05-17T04:47:44.136Z,28.95
2019-05-17T04:50:13.939Z,34.63
2019-05-17T04:52:43.555Z,32.78
2019-05-17T04:55:13.790Z,29.18
2019-05-17T04:57:43.996Z,27.10
2019-05-17T05:00:13.902Z,31.30
2019-05-17T05:02:44.293Z,27.60
2019-05-17T05:05:14.425Z,28.00
2019-05-17T05:07:43.792Z,29.12
2019-05-17T05:10:14.146Z,25.48
2019-05-17T05:12:44.053Z,27.05
2019-05-17T05:15:13.670Z,26.95
2019-05-17T05:17:42.837Z,23.32
2019-05-17T05:20:13.461Z,26.95
2019-05-17T05:22:43.139Z,23.57
2019-05-17T05:25:12.798Z,27.30
2019-05-17T05:27:42.745Z,27.98
2019-05-17T05:30:12.348Z,27.10
2019-05-17T05:32:42.571Z,29.72
2019-05-17T05:35:12.605Z,27.67
2019-05-17T05:37:42.396Z,30.10
2019-05-17T05:40:12.975Z,30.75
2019-05-17T05:42:42.793Z,32.03
2019-05-17T05:45:12.447Z,30.48
2019-05-17T05:47:42.566Z,30.80
2019-05-17T05:50:12.873Z,36.73
2019-05-17T05:52:42.377Z,33.28
2019-05-17T05:55:12.646Z,34.03
2019-05-17T05:57:42.215Z,32.55
2019-05-17T06:00:14.085Z,32.10
2019-05-17T06:02:42.695Z,27.73
2019-05-17T06:05:14.988Z,25.48
2019-05-17T06:07:42.973Z,26.62
2019-05-17T06:10:13.889Z,24.00
2019-05-17T06:12:43.414Z,30.55
2019-05-17T06:15:14.105Z,27.85
2019-05-17T06:17:43.196Z,23.55
2019-05-17T06:20:12.984Z,23.47
2019-05-17T06:22:42.746Z,27.75
2019-05-17T06:25:14.768Z,21.02
2019-05-17T06:27:42.386Z,28.80
2019-05-17T06:30:12.629Z,27.90
2019-05-17T06:32:43.297Z,26.23
2019-05-17T06:35:13.046Z,32.00
2019-05-17T06:37:42.548Z,25.95
2019-05-17T06:40:13.487Z,28.55
2019-05-17T06:42:45.444Z,24.50
2019-05-17T06:45:13.215Z,27.93
2019-05-17T06:47:42.771Z,24.47
2019-05-17T06:50:14.504Z,25.43
2019-05-17T06:52:44.202Z,26.97
2019-05-17T06:55:13.404Z,30.32
2019-05-17T06:57:43.354Z,26.93
2019-05-17T07:00:19.648Z,27.50
2019-05-17T07:02:43.455Z,28.02
2019-05-17T07:05:13.910Z,26.80
2019-05-17T07:07:42.519Z,21.80
2019-05-17T07:10:12.026Z,23.65
2019-05-17T07:12:54.510Z,24.43
2019-05-17T07:15:11.587Z,20.25
2019-05-17T07:17:40.364Z,21.17
2019-05-17T07:20:10.673Z,19.87
2019-05-17T07:22:40.730Z,19.07
2019-05-17T07:25:10.834Z,23.02
2019-05-17T07:27:44.805Z,21.00
2019-05-17T07:30:11.367Z,27.70
2019-05-17T07:32:40.606Z,20.97
2019-05-17T07:35:11.062Z,23.45
2019-05-17T07:37:40.460Z,20.43
2019-05-17T07:40:10.893Z,23.65
2019-05-17T07:42:40.049Z,27.93
2019-05-17T07:45:10.324Z,22.58
2019-05-17T07:47:40.513Z,26.65
2019-05-17T07:50:11.697Z,24.70
2019-05-17T07:52:40.619Z,23.27
2019-05-17T07:55:10.910Z,25.15
2019-05-17T07:57:40.864Z,26.00
2019-05-17T08:00:11.558Z,26.27
2019-05-17T08:02:40.515Z,27.50
2019-05-17T08:05:10.451Z,29.85
2019-05-17T08:07:40.748Z,29.40
2019-05-17T08:10:11.144Z,33.73
2019-05-17T08:12:40.933Z,28.83
2019-05-17T08:15:11.844Z,29.60
2019-05-17T08:17:40.380Z,34.40
2019-05-17T08:20:10.555Z,27.35
2019-05-17T08:22:40.152Z,29.25
2019-05-17T08:25:10.609Z,25.17
2019-05-17T08:27:40.485Z,25.12
2019-05-17T08:30:10.899Z,28.10
2019-05-17T08:32:40.279Z,23.55
2019-05-17T08:35:11.194Z,22.13
2019-05-17T08:37:42.434Z,19.40
2019-05-17T08:40:11.155Z,22.05
2019-05-17T08:42:40.613Z,25.27
2019-05-17T08:45:10.963Z,21.40
2019-05-17T08:47:39.933Z,23.25
2019-05-17T08:50:11.279Z,22.42
2019-05-17T08:52:40.424Z,22.55
2019-05-17T08:55:10.135Z,21.80
2019-05-17T08:57:39.930Z,20.60
2019-05-17T09:00:10.582Z,23.67
2019-05-17T09:02:40.934Z,21.40
2019-05-17T09:05:10.503Z,25.70
2019-05-17T09:07:40.118Z,24.12
2019-05-17T09:10:10.286Z,20.85
2019-05-17T09:12:40.914Z,19.62
2019-05-17T09:15:10.820Z,15.70
2019-05-17T09:17:39.866Z,19.77
2019-05-17T09:20:10.589Z,15.90
2019-05-17T09:22:39.978Z,14.07
2019-05-17T09:25:12.279Z,13.35
2019-05-17T09:27:39.719Z,16.45
2019-05-17T09:30:09.833Z,18.62
2019-05-17T09:32:40.394Z,14.87
2019-05-17T09:35:10.480Z,16.40
2019-05-17T09:37:41.540Z,16.48
2019-05-17T09:40:10.524Z,15.10
2019-05-17T09:42:41.193Z,16.40
2019-05-17T09:45:10.554Z,15.80
2019-05-17T09:47:39.661Z,14.13
2019-05-17T09:50:10.294Z,17.75
2019-05-17T09:52:40.578Z,15.58
2019-05-17T09:55:10.289Z,34.90
2019-05-17T09:57:40.779Z,9.88
2019-05-17T10:00:11.006Z,11.43
2019-05-17T10:02:40.531Z,8.78
2019-05-17T10:05:10.699Z,11.93
2019-05-17T10:07:40.496Z,11.22
2019-05-17T10:10:10.530Z,11.78
2019-05-17T10:12:40.339Z,10.70
2019-05-17T10:15:10.324Z,11.08
2019-05-17T10:17:39.176Z,9.38
2019-05-17T10:20:10.551Z,10.20
2019-05-17T10:22:40.053Z,13.90
2019-05-17T10:25:09.879Z,11.00
2019-05-17T10:27:40.669Z,10.70
2019-05-17T10:30:10.472Z,9.50
2019-05-17T10:32:40.815Z,11.80
2019-05-17T10:35:10.340Z,10.38
2019-05-17T10:37:40.617Z,9.85
2019-05-17T10:40:10.852Z,12.70
2019-05-17T10:42:40.006Z,12.05
2019-05-17T10:45:10.872Z,10.78
2019-05-17T10:47:39.773Z,11.38
2019-05-17T10:50:10.911Z,26.75
2019-05-17T10:52:41.038Z,12.55
2019-05-17T10:55:10.764Z,11.18
2019-05-17T10:57:39.767Z,12.43
2019-05-17T11:00:10.098Z,12.25
2019-05-17T11:02:39.344Z,12.40
2019-05-17T11:05:10.358Z,11.97
2019-05-17T11:07:38.562Z,12.07
2019-05-17T11:10:11.238Z,12.18
2019-05-17T11:12:38.291Z,10.88
2019-05-17T11:15:11.609Z,12.75
2019-05-17T11:17:39.631Z,11.22
2019-05-17T11:20:10.469Z,10.32
2019-05-17T11:22:39.028Z,8.33
2019-05-17T11:25:08.140Z,10.15
2019-05-17T11:27:36.901Z,11.78
2019-05-17T11:30:06.709Z,9.68
2019-05-17T11:32:35.229Z,8.43
2019-05-17T11:35:05.011Z,10.58
2019-05-17T11:37:33.593Z,9.85
2019-05-17T11:40:02.229Z,9.83
2019-05-17T11:42:30.799Z,10.58
2019-05-17T11:44:59.362Z,10.50
2019-05-17T11:47:27.973Z,14.35
2019-05-17T11:49:56.533Z,11.28
2019-05-17T11:52:25.120Z,9.58
2019-05-17T11:54:53.655Z,9.48
2019-05-17T11:57:22.152Z,13.83
2019-05-17T11:59:50.724Z,15.55
2019-05-17T12:02:21.531Z,10.40
2019-05-17T12:04:49.385Z,9.63
2019-05-17T12:07:18.049Z,11.55
2019-05-17T12:09:46.512Z,10.10
2019-05-17T12:12:15.017Z,9.75
2019-05-17T12:14:43.571Z,8.90
2019-05-17T12:17:12.207Z,9.40
2019-05-17T12:19:40.745Z,10.90
2019-05-17T12:22:09.349Z,9.58
2019-05-17T12:24:37.922Z,12.15
2019-05-17T12:27:06.396Z,11.85
2019-05-17T12:29:35.141Z,12.10
2019-05-17T12:32:03.829Z,9.60
2019-05-17T12:34:32.511Z,12.37
2019-05-17T12:37:01.113Z,11.68
2019-05-17T12:39:29.684Z,9.65
2019-05-17T12:41:58.247Z,9.25
2019-05-17T12:44:27.004Z,12.37
2019-05-17T12:46:55.568Z,10.15
2019-05-17T12:49:24.126Z,12.05
2019-05-17T12:51:52.692Z,10.23
2019-05-17T12:54:21.196Z,9.45
2019-05-17T12:56:49.737Z,10.35
2019-05-17T12:59:18.252Z,8.80
2019-05-17T13:01:46.708Z,8.03
2019-05-17T13:04:15.252Z,11.57
2019-05-17T13:06:43.785Z,11.35
2019-05-17T13:09:12.894Z,8.15
2019-05-17T13:11:41.560Z,11.50
2019-05-17T13:14:10.215Z,9.58
2019-05-17T13:16:38.780Z,9.18
2019-05-17T13:19:07.363Z,10.70
2019-05-17T13:21:36.054Z,11.85
2019-05-17T13:24:04.780Z,12.05
2019-05-17T13:26:33.324Z,8.98
2019-05-17T13:29:01.934Z,11.00
2019-05-17T13:31:30.497Z,9.38
2019-05-17T13:33:59.030Z,11.43
2019-05-17T13:36:27.636Z,9.35
2019-05-17T13:38:56.167Z,9.90
2019-05-17T13:41:24.632Z,12.40
2019-05-17T13:43:53.147Z,8.68
2019-05-17T13:46:32.696Z,12.65
2019-05-17T13:48:51.916Z,8.90
2019-05-17T13:51:20.710Z,11.97
2019-05-17T13:53:49.185Z,9.98
2019-05-17T13:56:17.760Z,10.90
2019-05-17T13:58:46.387Z,12.23
2019-05-17T14:01:14.886Z,13.43
2019-05-17T14:03:43.416Z,8.55
2019-05-17T14:06:11.912Z,10.70
2019-05-17T14:08:40.477Z,9.40
2019-05-17T14:11:09.129Z,10.35
2019-05-17T14:13:37.752Z,11.83
2019-05-17T14:16:06.292Z,6.85
2019-05-17T14:18:35.080Z,8.28
2019-05-17T14:21:03.642Z,9.73
2019-05-17T14:23:32.206Z,10.70
2019-05-17T14:26:00.852Z,8.55
2019-05-17T14:28:29.664Z,10.25
2019-05-17T14:30:58.217Z,7.97
2019-05-17T14:33:26.760Z,10.23
2019-05-17T14:35:55.331Z,8.48
2019-05-17T14:38:23.834Z,7.85
2019-05-17T14:41:08.775Z,11.78
2019-05-17T14:43:22.649Z,12.90
2019-05-17T14:45:51.175Z,9.30
2019-05-17T14:48:19.678Z,10.05
2019-05-17T14:50:48.299Z,10.85
2019-05-17T14:53:16.854Z,8.55
2019-05-17T14:55:45.390Z,13.30
2019-05-17T14:58:13.964Z,7.90
2019-05-17T15:00:42.432Z,9.23
2019-05-17T15:03:10.967Z,9.20
2019-05-17T15:05:39.585Z,10.90
2019-05-17T15:08:08.108Z,7.75
2019-05-17T15:10:36.601Z,8.48
2019-05-17T15:13:05.661Z,8.58
2019-05-17T15:15:34.196Z,8.00
2019-05-17T15:18:02.818Z,8.15
2019-05-17T15:20:31.420Z,9.43
2019-05-17T15:22:59.996Z,9.93
2019-05-17T15:25:28.561Z,13.30
2019-05-17T15:27:57.136Z,9.70
2019-05-17T15:30:25.599Z,11.05
2019-05-17T15:32:54.063Z,11.08
2019-05-17T15:35:24.200Z,14.58
2019-05-17T15:37:52.739Z,11.73
2019-05-17T15:40:21.216Z,8.93
2019-05-17T15:42:49.817Z,8.40
2019-05-17T15:45:18.657Z,8.25
2019-05-17T15:47:47.148Z,9.13
2019-05-17T15:50:16.195Z,9.98
2019-05-17T15:52:45.087Z,8.48
2019-05-17T15:55:13.914Z,8.60
2019-05-17T15:57:42.501Z,13.28
2019-05-17T16:00:11.513Z,8.78
2019-05-17T16:02:40.039Z,7.55
2019-05-17T16:05:09.504Z,9.90
2019-05-17T16:07:38.210Z,9.05
2019-05-17T16:10:07.931Z,9.60
2019-05-17T16:12:36.521Z,9.23
2019-05-17T16:15:07.286Z,8.55
2019-05-17T16:17:36.279Z,7.47
2019-05-17T16:20:06.303Z,9.90
2019-05-17T16:22:34.803Z,12.78
2019-05-17T16:25:04.568Z,8.35
2019-05-17T16:27:33.154Z,12.30
2019-05-17T16:30:01.831Z,6.53
2019-05-17T16:32:30.585Z,7.05
2019-05-17T16:34:59.156Z,10.23
2019-05-17T16:37:27.650Z,8.13
2019-05-17T16:39:56.216Z,10.03
2019-05-17T16:42:24.819Z,8.23
2019-05-17T16:44:53.567Z,8.85
2019-05-17T16:47:22.497Z,12.33
2019-05-17T16:49:51.096Z,8.40
2019-05-17T16:52:20.444Z,13.62
2019-05-17T16:54:48.984Z,8.78
2019-05-17T16:57:17.572Z,10.88
2019-05-17T16:59:46.210Z,9.93
2019-05-17T17:02:14.812Z,11.40
2019-05-17T17:04:43.348Z,9.13
2019-05-17T17:07:11.880Z,12.20
2019-05-17T17:09:40.404Z,9.05
2019-05-17T17:12:09.050Z,12.40
2019-05-17T17:14:37.515Z,12.18
2019-05-17T17:17:11.364Z,12.13
2019-05-17T17:19:36.330Z,9.75
2019-05-17T17:22:04.943Z,11.85
2019-05-17T17:24:33.445Z,11.45
2019-05-17T17:27:02.020Z,10.88
2019-05-17T17:29:30.551Z,10.43
2019-05-17T17:31:59.051Z,13.00
2019-05-17T17:34:27.639Z,12.37
2019-05-17T17:36:56.204Z,10.48
2019-05-17T17:39:24.758Z,9.75
2019-05-17T17:41:53.376Z,12.35
2019-05-17T17:44:21.902Z,15.13
2019-05-17T17:46:50.481Z,17.07
2019-05-17T17:49:19.219Z,11.40
2019-05-17T17:51:47.876Z,15.88
2019-05-17T17:54:16.408Z,10.48
2019-05-17T17:56:44.950Z,11.20
2019-05-17T17:59:13.480Z,11.30
2019-05-17T18:01:42.028Z,13.55
2019-05-17T18:04:10.633Z,10.10
2019-05-17T18:06:39.164Z,11.90
2019-05-17T18:09:08.063Z,11.33
2019-05-17T18:11:37.226Z,13.83
2019-05-17T18:14:13.279Z,11.05
2019-05-17T18:16:36.118Z,13.43
2019-05-17T18:19:04.949Z,12.98
2019-05-17T18:21:33.528Z,9.50
2019-05-17T18:24:02.053Z,9.73
2019-05-17T18:26:33.522Z,10.98
2019-05-17T18:29:02.175Z,11.20
2019-05-17T18:31:30.726Z,11.50
2019-05-17T18:33:59.299Z,13.55
2019-05-17T18:36:28.232Z,10.98
2019-05-17T18:38:58.065Z,11.08
2019-05-17T18:41:26.622Z,9.18
2019-05-17T18:43:55.188Z,8.98
2019-05-17T18:46:23.767Z,12.23
2019-05-17T18:48:52.396Z,11.43
2019-05-17T18:51:20.898Z,32.60
2019-05-17T18:53:49.637Z,11.40
2019-05-17T18:56:18.350Z,10.20
2019-05-17T18:58:46.926Z,11.30
2019-05-17T19:01:15.966Z,9.70
2019-05-17T19:03:44.648Z,13.50
2019-05-17T19:06:13.172Z,12.37
2019-05-17T19:08:41.672Z,13.38
2019-05-17T19:11:10.274Z,9.63
2019-05-17T19:13:38.831Z,11.55
2019-05-17T19:16:07.435Z,13.48
2019-05-17T19:18:35.948Z,13.58
2019-05-17T19:21:04.473Z,15.08
2019-05-17T19:23:32.937Z,11.55
2019-05-17T19:26:01.920Z,16.40
2019-05-17T19:28:30.386Z,11.22
2019-05-17T19:30:59.002Z,12.50
2019-05-17T19:33:27.581Z,16.90
2019-05-17T19:35:56.141Z,8.40
2019-05-17T19:38:24.756Z,10.82
2019-05-17T19:40:53.373Z,12.68
2019-05-17T19:43:21.889Z,11.03
2019-05-17T19:45:50.479Z,14.78
2019-05-17T19:48:19.855Z,9.55
2019-05-17T19:50:48.547Z,12.25
2019-05-17T19:53:17.116Z,11.57
2019-05-17T19:55:45.720Z,12.20
2019-05-17T19:58:14.316Z,18.87
2019-05-17T20:00:42.818Z,17.32
2019-05-17T20:03:11.428Z,15.60
2019-05-17T20:05:39.991Z,16.32
2019-05-17T20:08:08.536Z,14.10
2019-05-17T20:10:37.141Z,16.25
2019-05-17T20:13:05.835Z,18.87
2019-05-17T20:15:35.032Z,15.32
2019-05-17T20:18:04.055Z,16.17
2019-05-17T20:20:32.835Z,16.20
2019-05-17T20:23:01.372Z,19.15
2019-05-17T20:25:29.880Z,19.30
2019-05-17T20:27:58.508Z,16.42
2019-05-17T20:30:27.034Z,22.15
2019-05-17T20:32:55.542Z,16.52
2019-05-17T20:35:24.048Z,21.45
2019-05-17T20:37:52.617Z,21.10
2019-05-17T20:40:21.862Z,19.62
2019-05-17T20:42:50.401Z,19.62
2019-05-17T20:45:32.213Z,26.05
2019-05-17T20:47:49.476Z,22.15
2019-05-17T20:50:18.259Z,21.17
2019-05-17T20:52:46.756Z,26.97
2019-05-17T20:55:15.696Z,26.48
2019-05-17T20:57:44.230Z,22.67
2019-05-17T21:00:14.457Z,24.37
2019-05-17T21:02:43.026Z,26.62
2019-05-17T21:05:14.596Z,30.27
2019-05-17T21:07:43.149Z,29.65
2019-05-17T21:10:12.269Z,26.70
2019-05-17T21:12:40.813Z,27.80
2019-05-17T21:15:10.177Z,26.77
2019-05-17T21:17:39.127Z,24.43
2019-05-17T21:20:08.511Z,29.57
2019-05-17T21:22:37.148Z,29.92
2019-05-17T21:25:07.757Z,24.87
2019-05-17T21:27:36.366Z,22.75
2019-05-17T21:30:06.664Z,26.20
2019-05-17T21:32:35.174Z,26.30
2019-05-17T21:35:06.026Z,33.05
2019-05-17T21:37:35.294Z,28.47
2019-05-17T21:40:06.989Z,25.08
2019-05-17T21:42:35.451Z,26.85
2019-05-17T21:45:07.537Z,26.62
2019-05-17T21:47:36.094Z,29.87
2019-05-17T21:50:05.217Z,22.42
2019-05-17T21:52:33.715Z,22.75
2019-05-17T21:55:02.470Z,23.27
2019-05-17T21:57:31.045Z,25.15
2019-05-17T21:59:59.580Z,25.48
2019-05-17T22:02:28.217Z,26.12
2019-05-17T22:04:56.794Z,26.75
2019-05-17T22:07:25.455Z,28.07
2019-05-17T22:09:54.304Z,23.55
2019-05-17T22:12:22.793Z,26.48
2019-05-17T22:14:51.336Z,44.55
2019-05-17T22:17:19.957Z,32.83
2019-05-17T22:19:48.543Z,30.00
2019-05-17T22:22:17.486Z,28.80
2019-05-17T22:24:46.091Z,29.18
2019-05-17T22:27:14.635Z,27.85
2019-05-17T22:29:43.125Z,32.55
2019-05-17T22:32:11.826Z,30.23
2019-05-17T22:34:41.125Z,32.60
2019-05-17T22:37:09.706Z,26.35
2019-05-17T22:39:38.290Z,25.75
2019-05-17T22:42:06.763Z,27.82
2019-05-17T22:44:35.323Z,24.98
2019-05-17T22:47:03.907Z,24.95
2019-05-17T22:49:32.379Z,26.37
2019-05-17T22:52:00.929Z,22.05
2019-05-17T22:54:29.710Z,22.15
2019-05-17T22:56:58.288Z,21.37
2019-05-17T22:59:26.828Z,20.62
2019-05-17T23:01:55.341Z,20.88
2019-05-17T23:04:23.896Z,22.77
2019-05-17T23:06:52.373Z,20.23
2019-05-17T23:09:20.918Z,20.90
2019-05-17T23:11:49.459Z,20.00
2019-05-17T23:14:18.007Z,22.77
2019-05-17T23:16:51.538Z,20.62
2019-05-17T23:19:16.820Z,21.68
2019-05-17T23:21:45.397Z,22.42
2019-05-17T23:24:14.010Z,21.57
2019-05-17T23:26:42.557Z,22.98
2019-05-17T23:29:11.032Z,24.15
2019-05-17T23:31:39.573Z,25.72
2019-05-17T23:34:08.143Z,23.40
2019-05-17T23:36:36.693Z,26.80
2019-05-17T23:39:06.550Z,20.17
2019-05-17T23:41:35.122Z,24.65
2019-05-17T23:44:03.744Z,20.00
2019-05-17T23:46:32.727Z,20.92
2019-05-17T23:49:01.325Z,22.02
2019-05-17T23:51:29.882Z,22.67
2019-05-17T23:53:58.572Z,18.23
2019-05-17T23:56:27.185Z,22.25
2019-05-17T23:58:55.769Z,21.73
